Duluth International Airport
KDLH : now visible

Airfield :











YOU CAN JOIN US ON...

 
LOGIN :

Register | Disclaimer

   EN    FR    IT 

 









Legend :    VFR   Marginal VFR   IFR   Intensive IFR   Very Intensive IFR
Visi :
Ceiling :
>= 8 km
>= 3000ft
5 to 8 km
1000 to 3000 ft
1500m to 5 km
500 to 1000 ft
800 to 1500m
200 to 500 ft
< 800m
< 200 ft
Symbols :   Thunderstorms  Fog  Heavy snow  Heavy precipitations  Wind > 20 kt






- Airport Elevation : 1428 ft
- IATA code : DLH


KDLH - Duluth International

CURRENT METAR :
  • 130355Z 34004KT 9SM -SN OVC006 M07/M09 A2999 RMK AO2 SLP185 P0000 T10721094

EXPIRED METARs :
  • 130255Z 00000KT 7SM -SN OVC006 M07/M09 A2998 RMK AO2 SLP182 P0000 60000 T10721089 58007
  • 130155Z 03004KT 9SM -SN OVC008 M07/M09 A2999 RMK AO2 SLP187 P0000 T10721094

TAF KDLH
Valid from the 13 at 05:00 until the 14 at 00:00 UTC


130435Z 1305/1324 05004KT 5SM -SN BKN006
FM131000 07004KT P6SM OVC007
FM131800 13006KT 3SM -SN OVC009



MET'MAP, your aeronautical weather chart ! - Copyright ORBIFLY December 2007 - Disclaimer

ORBIFLY MET'MAP TEAM :

Programming & Development : Alexandra Zaïnal
Concept & original design : Baudouin d'Aumeries
Assistance for programming : Marc-Olivier Méhu
Technical & hardware support : Manuel Goepfert

Contact : metmap@orbifly.com




SOURCES & CREDITS :

   NOAA       Earth
Advisory